createdAt,value
2022-11-09T00:02:23.742Z,8.30
2022-11-09T00:07:55.179Z,8.27
2022-11-09T00:13:26.198Z,7.88
2022-11-09T00:18:57.690Z,9.23
2022-11-09T00:24:28.843Z,8.65
2022-11-09T00:29:59.955Z,7.82
2022-11-09T00:35:31.169Z,7.68
2022-11-09T00:41:07.258Z,8.30
2022-11-09T00:46:38.427Z,7.15
2022-11-09T00:52:09.752Z,7.20
2022-11-09T00:57:40.677Z,5.65
2022-11-09T01:03:12.763Z,6.90
2022-11-09T01:08:45.556Z,7.43
2022-11-09T01:14:18.880Z,6.80
2022-11-09T01:19:50.190Z,6.18
2022-11-09T01:25:21.549Z,5.65
2022-11-09T01:30:53.426Z,6.20
2022-11-09T01:36:25.411Z,5.20
2022-11-09T01:41:56.640Z,5.40
2022-11-09T01:47:27.637Z,5.53
2022-11-09T01:53:00.013Z,4.88
2022-11-09T01:58:42.723Z,5.55
2022-11-09T02:04:25.325Z,5.40
2022-11-09T02:10:21.184Z,5.15
2022-11-09T02:15:54.799Z,5.25
2022-11-09T02:21:28.290Z,4.88
2022-11-09T02:26:59.426Z,4.45
2022-11-09T02:32:31.692Z,4.40
2022-11-09T02:38:04.318Z,4.77
2022-11-09T02:43:36.893Z,4.20
2022-11-09T02:49:09.128Z,6.43
2022-11-09T02:54:40.665Z,3.70
2022-11-09T03:00:12.067Z,3.95
2022-11-09T03:05:44.339Z,4.00
2022-11-09T03:11:17.940Z,3.95
2022-11-09T03:16:50.750Z,3.85
2022-11-09T03:22:22.843Z,4.00
2022-11-09T03:28:01.459Z,3.55
2022-11-09T03:33:33.642Z,4.53
2022-11-09T03:39:05.399Z,3.97
2022-11-09T03:44:37.563Z,3.38
2022-11-09T03:50:09.328Z,3.25
2022-11-09T03:55:40.859Z,3.97
2022-11-09T04:01:11.961Z,4.13
2022-11-09T04:06:43.704Z,3.45
2022-11-09T04:12:15.269Z,3.78
2022-11-09T04:17:54.982Z,4.65
2022-11-09T04:23:26.064Z,4.60
2022-11-09T04:28:57.021Z,4.05
2022-11-09T04:34:28.399Z,3.88
2022-11-09T04:39:59.409Z,3.40
2022-11-09T04:45:33.500Z,3.70
2022-11-09T04:51:07.725Z,3.95
2022-11-09T04:56:38.694Z,3.85
2022-11-09T05:02:10.092Z,4.07
2022-11-09T05:07:41.324Z,4.10
2022-11-09T05:13:13.612Z,3.85
2022-11-09T05:18:44.888Z,3.80
2022-11-09T05:24:15.843Z,4.03
2022-11-09T05:29:47.059Z,3.97
2022-11-09T05:35:18.289Z,5.05
2022-11-09T05:40:50.905Z,5.25
2022-11-09T05:46:22.254Z,4.70
2022-11-09T05:51:53.689Z,4.13
2022-11-09T05:57:24.550Z,3.97
2022-11-09T06:03:03.296Z,3.83
2022-11-09T06:08:34.523Z,3.90
2022-11-09T06:14:05.915Z,3.88
2022-11-09T06:19:36.963Z,4.22
2022-11-09T06:25:08.737Z,4.60
2022-11-09T06:30:40.443Z,3.67
2022-11-09T06:36:11.793Z,4.82
2022-11-09T06:41:47.236Z,5.03
2022-11-09T06:47:19.096Z,4.20
2022-11-09T06:52:50.447Z,4.53
2022-11-09T06:58:22.205Z,4.95
2022-11-09T07:03:53.494Z,5.10
2022-11-09T07:09:24.838Z,5.68
2022-11-09T07:14:55.806Z,5.47
2022-11-09T07:20:27.315Z,5.03
2022-11-09T07:25:59.826Z,5.07
2022-11-09T07:31:31.687Z,4.30
2022-11-09T07:37:02.892Z,5.00
2022-11-09T07:42:33.961Z,4.85
2022-11-09T07:48:07.794Z,5.07
2022-11-09T07:53:39.354Z,4.53
2022-11-09T07:59:10.791Z,4.28
2022-11-09T08:04:41.873Z,4.95
2022-11-09T08:10:14.087Z,4.43
2022-11-09T08:15:45.405Z,4.88
2022-11-09T08:21:17.102Z,4.15
2022-11-09T08:26:48.069Z,5.45
2022-11-09T08:32:19.101Z,4.70
2022-11-09T08:37:51.417Z,5.30
2022-11-09T08:43:22.473Z,5.50
2022-11-09T08:48:53.942Z,4.38
2022-11-09T08:54:25.416Z,5.50
2022-11-09T08:59:56.806Z,5.18
2022-11-09T09:05:27.836Z,4.50
2022-11-09T09:11:05.700Z,4.57
2022-11-09T09:16:36.750Z,5.10
2022-11-09T09:22:07.645Z,5.13
2022-11-09T09:27:39.132Z,4.97
2022-11-09T09:33:10.420Z,5.20
2022-11-09T09:38:41.945Z,5.28
2022-11-09T09:44:48.043Z,5.75
2022-11-09T09:50:23.060Z,4.78
2022-11-09T09:55:57.782Z,5.28
2022-11-09T10:01:38.747Z,4.93
2022-11-09T10:07:30.025Z,5.07
2022-11-09T10:13:19.789Z,5.10
2022-11-09T10:19:14.329Z,5.05
2022-11-09T10:25:32.129Z,4.82
2022-11-09T10:30:57.342Z,4.88
2022-11-09T10:36:47.966Z,4.78
2022-11-09T10:42:18.996Z,5.65
2022-11-09T10:48:10.999Z,4.85
2022-11-09T10:54:28.581Z,5.30
2022-11-09T11:00:21.985Z,5.38
2022-11-09T11:06:27.334Z,5.97
2022-11-09T11:12:22.310Z,6.53
2022-11-09T11:18:24.588Z,5.10
2022-11-09T11:24:15.886Z,7.38
2022-11-09T11:30:10.818Z,6.82
2022-11-09T11:36:31.762Z,5.25
2022-11-09T11:42:34.991Z,5.68
2022-11-09T11:48:53.656Z,4.90
2022-11-09T11:55:02.993Z,4.65
2022-11-09T12:01:26.253Z,6.63
2022-11-09T12:07:16.266Z,5.65
2022-11-09T12:13:34.045Z,5.60
2022-11-09T12:19:42.576Z,5.97
2022-11-09T12:25:37.340Z,5.35
2022-11-09T12:31:45.683Z,5.95
2022-11-09T12:37:41.297Z,5.43
2022-11-09T12:43:55.916Z,5.00
2022-11-09T12:49:47.368Z,5.63
2022-11-09T12:55:46.837Z,5.45
2022-11-09T13:01:36.655Z,6.05
2022-11-09T13:07:49.945Z,5.50
2022-11-09T13:13:39.808Z,6.53
2022-11-09T13:19:35.833Z,6.28
2022-11-09T13:25:48.368Z,6.03
2022-11-09T13:32:03.357Z,5.93
2022-11-09T13:37:57.663Z,6.45
2022-11-09T13:43:47.807Z,5.70
2022-11-09T13:49:44.932Z,5.63
2022-11-09T13:55:42.569Z,6.05
2022-11-09T14:01:38.306Z,5.93
2022-11-09T14:07:33.051Z,4.85
2022-11-09T14:19:51.450Z,5.45
2022-11-09T14:25:41.608Z,5.22
2022-11-09T14:31:31.661Z,5.30
2022-11-09T14:37:22.049Z,6.20
2022-11-09T14:43:18.264Z,5.25
2022-11-09T14:49:10.217Z,5.72
2022-11-09T14:55:00.284Z,6.25
2022-11-09T15:01:15.523Z,6.57
2022-11-09T15:07:05.645Z,6.03
2022-11-09T15:12:58.049Z,6.22
2022-11-09T15:18:48.604Z,4.68
2022-11-09T15:24:47.694Z,7.38
2022-11-09T15:30:45.653Z,6.90
2022-11-09T15:36:38.937Z,6.22
2022-11-09T15:42:31.063Z,7.72
2022-11-09T15:48:22.443Z,6.38
2022-11-09T15:54:13.618Z,7.30
2022-11-09T16:00:09.170Z,8.43
2022-11-09T16:06:01.674Z,7.63
2022-11-09T16:11:51.745Z,7.22
2022-11-09T16:17:41.791Z,7.78
2022-11-09T16:23:31.409Z,7.93
2022-11-09T16:29:24.250Z,8.02
2022-11-09T16:35:29.463Z,8.52
2022-11-09T16:41:20.027Z,10.20
2022-11-09T16:47:13.978Z,9.98
2022-11-09T16:53:04.502Z,7.80
2022-11-09T16:58:54.389Z,8.82
2022-11-09T17:04:44.725Z,8.75
2022-11-09T17:10:35.594Z,8.43
2022-11-09T17:16:26.529Z,7.55
2022-11-09T17:22:17.569Z,7.90
2022-11-09T17:28:08.114Z,10.18
2022-11-09T17:34:01.058Z,7.97
2022-11-09T17:39:51.445Z,7.38
2022-11-09T17:45:41.693Z,7.85
2022-11-09T17:51:32.339Z,7.32
2022-11-09T17:57:22.371Z,7.93
2022-11-09T18:03:12.231Z,8.98
2022-11-09T18:15:12.628Z,6.35
2022-11-09T18:21:11.759Z,6.60
2022-11-09T18:27:01.609Z,8.13
2022-11-09T18:32:52.428Z,7.28
2022-11-09T18:38:43.900Z,7.57
2022-11-09T18:44:33.796Z,8.20
2022-11-09T18:50:23.717Z,8.80
2022-11-09T18:56:21.869Z,9.52
2022-11-09T19:02:14.063Z,7.40
2022-11-09T19:08:04.564Z,9.05
2022-11-09T19:13:54.851Z,9.50
2022-11-09T19:19:45.208Z,9.60
2022-11-09T19:25:35.171Z,8.10
2022-11-09T19:31:25.627Z,7.43
2022-11-09T19:37:15.197Z,7.85
2022-11-09T19:43:05.279Z,8.32
2022-11-09T19:48:55.155Z,9.35
2022-11-09T19:54:45.129Z,10.15
2022-11-09T20:00:36.408Z,8.50
2022-11-09T20:06:27.783Z,9.05
2022-11-09T20:12:36.513Z,9.85
2022-11-09T20:18:27.002Z,11.43
2022-11-09T20:24:17.142Z,9.90
2022-11-09T20:30:07.393Z,9.13
2022-11-09T20:35:57.658Z,11.73
2022-11-09T20:41:47.596Z,9.50
2022-11-09T20:48:03.185Z,10.10
2022-11-09T20:53:48.483Z,10.40
2022-11-09T20:59:39.083Z,11.43
2022-11-09T21:05:29.205Z,12.50
2022-11-09T21:11:19.964Z,10.63
2022-11-09T21:17:09.815Z,10.63
2022-11-09T21:23:12.128Z,12.45
2022-11-09T21:29:20.448Z,12.40
2022-11-09T21:35:10.972Z,13.55
2022-11-09T21:41:21.971Z,13.43
2022-11-09T21:47:11.899Z,13.40
2022-11-09T21:53:01.944Z,12.80
2022-11-09T21:58:52.214Z,13.68
2022-11-09T22:04:42.159Z,12.55
2022-11-09T22:10:32.054Z,14.07
2022-11-09T22:16:23.763Z,13.00
2022-11-09T22:22:14.528Z,14.18
2022-11-09T22:28:04.439Z,14.68
2022-11-09T22:33:55.443Z,15.70
2022-11-09T22:39:47.456Z,15.07
2022-11-09T22:45:37.614Z,12.98
2022-11-09T22:51:27.553Z,14.60
2022-11-09T22:57:17.362Z,16.05
2022-11-09T23:03:07.382Z,15.68
2022-11-09T23:08:57.202Z,15.20
2022-11-09T23:15:05.687Z,15.13
2022-11-09T23:21:00.403Z,18.02
2022-11-09T23:26:50.593Z,16.27
2022-11-09T23:32:40.980Z,14.70
2022-11-09T23:38:36.946Z,13.85
2022-11-09T23:44:26.954Z,15.35
2022-11-09T23:50:17.190Z,15.82
2022-11-09T23:56:09.540Z,13.63
